HorshamWeather.Com Historical Data
 
Daily Summary for October 23, 2014 Units:  English    Metric   Both
« Previous Day
Next Day »
Daily Weekly Monthly Yearly Custom
  Current: High: Low: Average:
Temperature: 51.0 °F 51.1 °F 50.1 °F 50.6 °F
Dew Point: 47.9 °F 49.6 °F 47.7 °F 48.7 °F
Humidity: 89% 95% 89% 93%
Wind Speed: 1.0mph 11.0mph 0.0mph 2.9mph
Wind Gust: 3.0mph 14.0mph - -
WindNW - - WSW
Pressure: 29.76 in 29.80 in 29.75 in -
Precipitation: 0.06 in      
Historical Graphs
 
 
Tabular Data for October 23, 2014
Time Temperature Dew Point Pressure Wind Wind Speed Wind Gust Humidity Rainfall Rate (Hourly)
00:00 51.1 °F 49.4 °F 29.80 in Calm   12.0 mph 94% 0.06 in
00:05 51.1 °F 49.4 °F 29.80 in WNW 2.0 mph 2.0 mph 94% 0.06 in
00:10 51.0 °F 49.6 °F 29.79 in WNW 4.0 mph 4.0 mph 95% 0.07 in
00:15 51.0 °F 49.6 °F 29.79 in NW 1.0 mph 3.0 mph 95% 0.07 in
00:20 50.9 °F 49.5 °F 29.79 in West 2.0 mph 2.0 mph 95% 0.07 in
00:25 50.9 °F 49.5 °F 29.79 in NW 5.0 mph 5.0 mph 95% 0.07 in
00:30 50.9 °F 49.5 °F 29.79 in NNE 4.0 mph 4.0 mph 95% 0.07 in
00:35 50.8 °F 49.4 °F 29.79 in WNW 4.0 mph 5.0 mph 95% 0.07 in
00:40 50.8 °F 49.4 °F 29.78 in NW 1.0 mph 2.0 mph 95% 0.06 in
00:45 50.8 °F 49.4 °F 29.78 in NW 2.0 mph 2.0 mph 95% 0.06 in
00:50 50.8 °F 49.4 °F 29.78 in North 4.0 mph 4.0 mph 95% 0.06 in
00:55 50.7 °F 49.3 °F 29.78 in NNE 4.0 mph 5.0 mph 95% 0.05 in
01:00 50.7 °F 49.3 °F 29.78 in West 1.0 mph 1.0 mph 95% 0.04 in
01:05 50.7 °F 49.3 °F 29.78 in WNW 5.0 mph 5.0 mph 95% 0.04 in
01:10 50.6 °F 49.2 °F 29.78 in NNW 1.0 mph 1.0 mph 95% 0.03 in
01:15 50.6 °F 49.2 °F 29.78 in WNW 6.0 mph 8.0 mph 95% 0.02 in
01:20 50.6 °F 49.2 °F 29.77 in WSW 3.0 mph 3.0 mph 95% 0.03 in
01:25 50.5 °F 49.1 °F 29.77 in NNE 1.0 mph 2.0 mph 95% 0.02 in
01:30 50.5 °F 49.1 °F 29.77 in NNW 3.0 mph 4.0 mph 95% 0.02 in
01:35 50.4 °F 49.0 °F 29.77 in SSW 5.0 mph 12.0 mph 95% 0.02 in
01:40 50.4 °F 49.0 °F 29.77 in WNW 2.0 mph 2.0 mph 95% 0.02 in
01:45 50.3 °F 48.9 °F 29.77 in NNW 3.0 mph 6.0 mph 95% 0.01 in
01:50 50.3 °F 48.9 °F 29.77 in NNE 1.0 mph 3.0 mph 95% 0.01 in
01:55 50.3 °F 48.6 °F 29.77 in NNW 2.0 mph 2.0 mph 94% 0.01 in
02:00 50.3 °F 48.9 °F 29.77 in West 1.0 mph 3.0 mph 95% 0.01 in
02:05 50.3 °F 48.9 °F 29.77 in North 1.0 mph 2.0 mph 95% 0.01 in
02:10 50.3 °F 48.9 °F 29.77 in NNE 4.0 mph 5.0 mph 95% 0.01 in
02:15 50.2 °F 48.8 °F 29.77 in NE 2.0 mph 2.0 mph 95% 0.02 in
02:20 50.2 °F 48.5 °F 29.77 in NNW 2.0 mph 3.0 mph 94% 0.01 in
02:25 50.2 °F 48.5 °F 29.77 in NNW 1.0 mph 3.0 mph 94% 0.01 in
02:30 50.1 °F 48.4 °F 29.77 in NNW 9.0 mph 9.0 mph 94% 0.01 in
02:35 50.2 °F 48.5 °F 29.77 in NNW 4.0 mph 6.0 mph 94% 0.01 in
02:40 50.2 °F 48.5 °F 29.77 in NNE 11.0 mph 14.0 mph 94% 0.01 in
02:45 50.2 °F 48.5 °F 29.77 in NNW 1.0 mph 2.0 mph 94% 0.01 in
02:50 50.3 °F 48.4 °F 29.77 in Calm   3.0 mph 93% 0.01 in
02:55 50.4 °F 48.5 °F 29.77 in NNE 4.0 mph 6.0 mph 93% 0.01 in
03:00 50.4 °F 48.5 °F 29.76 in NNW 1.0 mph 1.0 mph 93% 0.01 in
03:05 50.4 °F 48.2 °F 29.77 in NNW 4.0 mph 5.0 mph 92% 0.01 in
03:10 50.5 °F 48.6 °F 29.76 in NNE 4.0 mph 4.0 mph 93% 0.01 in
03:15 50.5 °F 48.3 °F 29.76 in NW 3.0 mph 4.0 mph 92% 0.00 in
03:20 50.5 °F 48.3 °F 29.76 in WNW 7.0 mph 8.0 mph 92% 0.00 in
03:25 50.5 °F 48.3 °F 29.76 in WNW 2.0 mph 3.0 mph 92% 0.00 in
03:30 50.6 °F 48.4 °F 29.76 in NW 1.0 mph 3.0 mph 92% 0.00 in
03:35 50.6 °F 48.4 °F 29.76 in WNW 1.0 mph 2.0 mph 92% 0.00 in
03:40 50.6 °F 48.4 °F 29.76 in NW 3.0 mph 4.0 mph 92% 0.00 in
03:45 50.5 °F 48.3 °F 29.76 in NW 3.0 mph 3.0 mph 92% 0.00 in
03:50 50.5 °F 48.3 °F 29.76 in NE 3.0 mph 5.0 mph 92% 0.00 in
03:55 50.5 °F 48.0 °F 29.76 in WNW 2.0 mph 2.0 mph 91% 0.00 in
04:00 50.6 °F 48.1 °F 29.76 in North 2.0 mph 2.0 mph 91% 0.00 in
04:05 50.7 °F 47.9 °F 29.75 in NW 3.0 mph 4.0 mph 90% 0.00 in
04:10 50.8 °F 48.0 °F 29.76 in North 3.0 mph 3.0 mph 90% 0.00 in
04:15 50.8 °F 47.7 °F 29.76 in NNE 3.0 mph 4.0 mph 89% 0.00 in
04:20 50.8 °F 48.0 °F 29.76 in NW 2.0 mph 2.0 mph 90% 0.00 in
04:25 50.8 °F 48.0 °F 29.76 in SW 1.0 mph 1.0 mph 90% 0.00 in
04:30 50.9 °F 47.8 °F 29.76 in NW 2.0 mph 2.0 mph 89% 0.00 in
04:35 51.0 °F 47.9 °F 29.76 in NW 1.0 mph 3.0 mph 89% 0.00 in
HorshamWeather.Com
Compliments of Weather Underground